createdAt,value
2022-10-13T00:01:24.744Z,4.28
2022-10-13T00:03:53.328Z,4.31
2022-10-13T00:06:25.351Z,4.34
2022-10-13T00:08:54.590Z,4.40
2022-10-13T00:11:25.123Z,4.38
2022-10-13T00:13:56.888Z,4.48
2022-10-13T00:16:25.979Z,4.44
2022-10-13T00:18:54.284Z,4.44
2022-10-13T00:21:25.011Z,4.48
2022-10-13T00:23:54.444Z,4.51
2022-10-13T00:26:24.695Z,4.50
2022-10-13T00:28:53.381Z,4.55
2022-10-13T00:31:25.133Z,4.47
2022-10-13T00:33:54.242Z,4.46
2022-10-13T00:36:23.538Z,4.40
2022-10-13T00:38:53.009Z,4.42
2022-10-13T00:41:21.991Z,4.42
2022-10-13T00:44:00.319Z,4.43
2022-10-13T00:46:32.080Z,4.42
2022-10-13T00:49:05.433Z,4.45
2022-10-13T00:51:38.313Z,4.35
2022-10-13T00:54:07.697Z,4.38
2022-10-13T00:56:40.329Z,4.26
2022-10-13T00:59:27.416Z,4.26
2022-10-13T01:01:58.842Z,4.20
2022-10-13T01:04:32.473Z,4.23
2022-10-13T01:07:02.278Z,4.24
2022-10-13T01:09:38.159Z,4.26
2022-10-13T01:12:18.731Z,4.28
2022-10-13T01:15:05.899Z,4.31
2022-10-13T01:17:55.230Z,4.28
2022-10-13T01:20:48.160Z,4.27
2022-10-13T01:23:30.580Z,4.24
2022-10-13T01:26:25.622Z,4.28
2022-10-13T01:29:21.274Z,4.34
2022-10-13T01:32:00.264Z,4.45
2022-10-13T01:34:37.879Z,4.30
2022-10-13T01:37:22.941Z,4.29
2022-10-13T01:39:57.620Z,4.28
2022-10-13T01:42:35.467Z,4.43
2022-10-13T01:45:04.861Z,4.40
2022-10-13T01:47:35.766Z,4.27
2022-10-13T01:50:07.154Z,4.27
2022-10-13T01:52:42.196Z,4.29
2022-10-13T01:55:12.728Z,4.23
2022-10-13T01:57:43.489Z,4.18
2022-10-13T02:00:16.661Z,4.19
2022-10-13T02:03:04.231Z,4.15
2022-10-13T02:05:52.434Z,4.11
2022-10-13T02:08:46.630Z,4.12
2022-10-13T02:11:25.822Z,4.13
2022-10-13T02:14:15.560Z,4.06
2022-10-13T02:17:05.605Z,4.09
2022-10-13T02:19:38.126Z,4.11
2022-10-13T02:22:08.617Z,4.16
2022-10-13T02:24:37.298Z,4.09
2022-10-13T02:27:07.154Z,4.06
2022-10-13T02:29:35.156Z,4.06
2022-10-13T02:32:06.483Z,4.08
2022-10-13T02:34:34.399Z,4.14
2022-10-13T02:37:02.300Z,4.16
2022-10-13T02:39:30.557Z,4.23
2022-10-13T02:41:58.809Z,4.17
2022-10-13T02:44:26.725Z,4.23
2022-10-13T02:46:55.019Z,4.21
2022-10-13T02:49:22.915Z,4.28
2022-10-13T02:51:50.965Z,4.25
2022-10-13T02:54:19.332Z,4.26
2022-10-13T02:56:47.136Z,4.29
2022-10-13T02:59:18.230Z,4.34
2022-10-13T03:01:46.811Z,4.32
2022-10-13T03:04:14.740Z,4.41
2022-10-13T03:06:45.888Z,4.39
2022-10-13T03:09:17.190Z,4.31
2022-10-13T03:11:45.148Z,4.30
2022-10-13T03:14:13.491Z,4.35
2022-10-13T03:16:41.787Z,4.41
2022-10-13T03:19:11.506Z,4.25
2022-10-13T03:21:39.967Z,4.28
2022-10-13T03:24:08.529Z,4.30
2022-10-13T03:26:36.359Z,4.32
2022-10-13T03:29:04.256Z,4.29
2022-10-13T03:31:35.767Z,4.37
2022-10-13T03:34:03.556Z,4.31
2022-10-13T03:36:31.500Z,4.14
2022-10-13T03:38:59.763Z,4.27
2022-10-13T03:41:27.673Z,4.12
2022-10-13T03:43:55.845Z,4.04
2022-10-13T03:46:27.063Z,4.05
2022-10-13T03:48:56.973Z,4.13
2022-10-13T03:51:25.739Z,4.02
2022-10-13T03:53:57.127Z,4.02
2022-10-13T03:56:27.476Z,3.88
2022-10-13T03:59:00.524Z,3.84
2022-10-13T04:01:30.781Z,3.80
2022-10-13T04:04:02.425Z,3.82
2022-10-13T04:06:31.323Z,3.86
2022-10-13T04:08:59.814Z,3.83
2022-10-13T04:11:27.737Z,3.74
2022-10-13T04:14:00.036Z,3.82
2022-10-13T04:16:30.890Z,3.97
2022-10-13T04:19:05.579Z,3.94
2022-10-13T04:21:35.462Z,3.96
2022-10-13T04:24:05.305Z,4.09
2022-10-13T04:26:36.977Z,4.20
2022-10-13T04:29:10.114Z,4.24
2022-10-13T04:31:40.131Z,4.20
2022-10-13T04:34:08.771Z,4.16
2022-10-13T04:36:36.868Z,4.26
2022-10-13T04:39:05.349Z,4.18
2022-10-13T04:41:34.028Z,4.27
2022-10-13T04:44:02.824Z,4.28
2022-10-13T04:46:34.166Z,4.36
2022-10-13T04:49:02.012Z,4.37
2022-10-13T04:51:32.372Z,4.37
2022-10-13T04:54:03.723Z,4.40
2022-10-13T04:56:34.786Z,4.54
2022-10-13T04:59:09.331Z,4.54
2022-10-13T05:01:38.018Z,4.51
2022-10-13T05:04:10.079Z,4.44
2022-10-13T05:07:05.402Z,4.50
2022-10-13T05:09:30.531Z,4.62
2022-10-13T05:11:58.536Z,4.53
2022-10-13T05:14:26.479Z,4.59
2022-10-13T05:16:54.659Z,4.57
2022-10-13T05:19:22.603Z,4.71
2022-10-13T05:21:50.513Z,4.70
2022-10-13T05:24:21.071Z,4.74
2022-10-13T05:26:50.297Z,4.80
2022-10-13T05:29:18.650Z,4.79
2022-10-13T05:31:46.576Z,4.96
2022-10-13T05:34:15.017Z,4.89
2022-10-13T05:36:43.334Z,4.82
2022-10-13T05:39:11.278Z,4.87
2022-10-13T05:41:42.461Z,5.03
2022-10-13T05:44:16.952Z,5.15
2022-10-13T05:46:47.246Z,5.01
2022-10-13T05:49:16.257Z,5.17
2022-10-13T05:51:47.563Z,5.19
2022-10-13T05:54:21.761Z,5.42
2022-10-13T05:57:11.942Z,5.38
2022-10-13T05:59:45.433Z,5.25
2022-10-13T06:02:14.958Z,5.43
2022-10-13T06:04:47.949Z,5.34
2022-10-13T06:07:15.927Z,5.46
2022-10-13T06:09:44.174Z,5.73
2022-10-13T06:12:11.988Z,5.63
2022-10-13T06:14:40.011Z,5.87
2022-10-13T06:17:10.847Z,5.83
2022-10-13T06:19:45.661Z,5.82
2022-10-13T06:22:14.067Z,5.77
2022-10-13T06:24:42.115Z,5.71
2022-10-13T06:29:58.255Z,6.07
2022-10-13T06:32:26.039Z,5.94
2022-10-13T06:34:53.817Z,6.38
2022-10-13T06:37:26.314Z,6.19
2022-10-13T06:39:55.577Z,6.31
2022-10-13T06:42:23.828Z,6.67
2022-10-13T06:44:54.203Z,6.92
2022-10-13T06:47:25.242Z,7.00
2022-10-13T06:49:54.081Z,7.16
2022-10-13T06:52:22.358Z,7.04
2022-10-13T06:54:50.423Z,7.03
2022-10-13T06:57:18.670Z,7.08
2022-10-13T06:59:46.556Z,7.06
2022-10-13T07:02:14.387Z,7.29
2022-10-13T07:04:42.651Z,7.39
2022-10-13T07:07:10.882Z,7.19
2022-10-13T07:09:38.795Z,7.05
2022-10-13T07:12:10.241Z,6.90
2022-10-13T07:14:39.289Z,7.04
2022-10-13T07:17:13.068Z,7.16
2022-10-13T07:19:41.002Z,7.40
2022-10-13T07:22:08.870Z,7.40
2022-10-13T07:24:40.084Z,7.54
2022-10-13T07:27:08.096Z,7.66
2022-10-13T07:29:36.194Z,7.75
2022-10-13T07:32:04.556Z,8.16
2022-10-13T07:34:35.629Z,8.11
2022-10-13T07:37:03.489Z,8.16
2022-10-13T07:39:33.007Z,8.38
2022-10-13T07:42:00.820Z,8.39
2022-10-13T07:44:28.891Z,8.52
2022-10-13T07:46:57.014Z,8.75
2022-10-13T07:49:24.743Z,9.02
2022-10-13T07:51:55.074Z,8.89
2022-10-13T07:54:26.528Z,9.04
2022-10-13T07:56:56.626Z,8.98
2022-10-13T07:59:25.085Z,8.56
2022-10-13T08:01:52.812Z,8.26
2022-10-13T08:04:21.009Z,8.44
2022-10-13T08:06:48.890Z,8.72
2022-10-13T08:09:16.954Z,8.55
2022-10-13T08:11:48.403Z,9.33
2022-10-13T08:14:20.223Z,8.83
2022-10-13T08:16:51.401Z,8.46
2022-10-13T08:19:22.419Z,8.24
2022-10-13T08:21:59.694Z,8.48
2022-10-13T08:24:31.003Z,8.84
2022-10-13T08:27:02.355Z,8.94
2022-10-13T08:29:30.352Z,8.67
2022-10-13T08:31:58.200Z,8.31
2022-10-13T08:34:26.542Z,8.26
2022-10-13T08:36:56.751Z,8.51
2022-10-13T08:39:27.542Z,8.76
2022-10-13T08:41:59.213Z,8.79
2022-10-13T08:45:10.947Z,9.29
2022-10-13T08:47:37.112Z,9.51
2022-10-13T08:50:18.103Z,9.63
2022-10-13T08:52:54.914Z,9.83
2022-10-13T08:55:31.838Z,9.44
2022-10-13T08:58:01.131Z,9.46
2022-10-13T09:00:30.456Z,9.29
2022-10-13T09:03:30.757Z,10.01
2022-10-13T09:06:15.778Z,9.77
2022-10-13T09:08:51.757Z,9.86
2022-10-13T09:11:20.711Z,10.23
2022-10-13T09:13:49.191Z,9.99
2022-10-13T09:16:38.651Z,10.22
2022-10-13T09:19:22.898Z,9.61
2022-10-13T09:21:53.223Z,10.47
2022-10-13T09:24:23.784Z,10.41
2022-10-13T09:27:05.315Z,9.88
2022-10-13T09:29:38.690Z,10.46
2022-10-13T09:32:16.592Z,10.49
2022-10-13T09:34:45.248Z,10.40
2022-10-13T09:37:22.663Z,10.01
2022-10-13T09:40:12.619Z,10.07
2022-10-13T09:42:40.948Z,10.14
2022-10-13T09:45:17.033Z,10.05
2022-10-13T09:48:03.657Z,10.13
2022-10-13T09:50:33.737Z,10.46
2022-10-13T09:53:20.216Z,10.49
2022-10-13T09:55:49.931Z,10.05
2022-10-13T09:58:31.468Z,11.08
2022-10-13T10:01:02.434Z,10.91
2022-10-13T10:03:39.408Z,10.78
2022-10-13T10:06:17.334Z,10.49
2022-10-13T10:09:04.892Z,10.85
2022-10-13T10:11:42.168Z,10.21
2022-10-13T10:14:17.573Z,10.62
2022-10-13T10:16:50.977Z,10.76
2022-10-13T10:19:30.936Z,9.80
2022-10-13T10:22:09.924Z,9.24
2022-10-13T10:25:06.345Z,9.17
2022-10-13T10:27:53.008Z,9.45
2022-10-13T10:30:22.350Z,10.27
2022-10-13T10:33:14.063Z,10.04
2022-10-13T10:35:55.469Z,9.80
2022-10-13T10:38:44.495Z,9.97
2022-10-13T10:41:37.459Z,9.41
2022-10-13T10:44:11.376Z,9.49
2022-10-13T10:46:52.339Z,9.38
2022-10-13T10:49:29.052Z,9.12
2022-10-13T10:52:03.253Z,9.39
2022-10-13T10:54:54.294Z,9.19
2022-10-13T10:57:34.102Z,9.39
2022-10-13T11:00:19.193Z,9.92
2022-10-13T11:03:02.712Z,10.66
2022-10-13T11:05:49.242Z,10.17
2022-10-13T11:08:40.693Z,10.50
2022-10-13T11:11:33.425Z,10.13
2022-10-13T11:14:09.359Z,10.24
2022-10-13T11:17:06.263Z,9.45
2022-10-13T11:19:36.956Z,9.15
2022-10-13T11:22:04.746Z,9.00
2022-10-13T11:24:34.192Z,9.27
2022-10-13T11:27:08.664Z,8.97
2022-10-13T11:29:52.567Z,9.22
2022-10-13T11:32:27.291Z,8.80
2022-10-13T11:35:07.207Z,8.98
2022-10-13T11:38:07.589Z,9.08
2022-10-13T11:40:57.556Z,8.77
2022-10-13T11:43:54.319Z,8.61
2022-10-13T11:47:00.531Z,8.80
2022-10-13T11:50:08.206Z,8.74
2022-10-13T11:53:09.045Z,8.88
2022-10-13T11:55:51.123Z,8.69
2022-10-13T11:58:27.162Z,8.36
2022-10-13T12:01:04.727Z,8.42
2022-10-13T12:03:40.435Z,8.82
2022-10-13T12:06:22.250Z,9.09
2022-10-13T12:08:52.370Z,8.98
2022-10-13T12:11:28.894Z,8.81
2022-10-13T12:13:57.931Z,8.94
2022-10-13T12:16:30.280Z,8.45
2022-10-13T12:19:10.550Z,8.63
2022-10-13T12:21:51.434Z,8.67
2022-10-13T12:24:23.972Z,8.36
2022-10-13T12:26:52.817Z,8.55
2022-10-13T12:29:25.628Z,8.50
2022-10-13T12:31:54.611Z,8.40
2022-10-13T12:34:36.688Z,8.43
2022-10-13T12:37:34.027Z,8.39
2022-10-13T12:40:05.166Z,8.28
2022-10-13T12:42:36.331Z,8.20
2022-10-13T12:45:05.508Z,8.24
2022-10-13T12:47:47.615Z,8.07
2022-10-13T12:50:30.921Z,7.91
2022-10-13T12:53:12.861Z,7.89
2022-10-13T12:55:59.453Z,7.82
2022-10-13T12:58:33.447Z,7.86
2022-10-13T13:01:29.042Z,7.67
2022-10-13T13:04:02.683Z,7.50
2022-10-13T13:06:33.855Z,7.50
2022-10-13T13:09:25.335Z,7.42
2022-10-13T13:12:13.103Z,7.36
2022-10-13T13:14:45.599Z,7.27
2022-10-13T13:17:38.454Z,7.13
2022-10-13T13:20:27.197Z,7.91
2022-10-13T13:22:56.209Z,9.88
2022-10-13T13:25:24.451Z,10.74
2022-10-13T13:27:52.474Z,11.01
2022-10-13T13:30:23.524Z,11.82
2022-10-13T13:32:51.601Z,9.81
2022-10-13T13:35:19.559Z,8.94
2022-10-13T13:37:50.862Z,8.13
2022-10-13T13:40:26.808Z,7.70
2022-10-13T13:42:58.347Z,7.35
2022-10-13T13:45:26.745Z,7.70
2022-10-13T13:48:00.396Z,7.92
2022-10-13T13:50:35.342Z,8.04
2022-10-13T13:53:04.665Z,8.52
2022-10-13T13:55:32.776Z,8.69
2022-10-13T13:58:01.096Z,8.54
2022-10-13T14:00:29.363Z,8.18
2022-10-13T14:02:58.174Z,8.31
2022-10-13T14:05:26.013Z,8.20
2022-10-13T14:07:55.485Z,8.11
2022-10-13T14:10:24.595Z,8.23
2022-10-13T14:12:52.934Z,7.81
2022-10-13T14:15:22.480Z,7.56
2022-10-13T14:17:54.140Z,7.26
2022-10-13T14:20:22.454Z,7.02
2022-10-13T14:22:50.278Z,6.63
2022-10-13T14:25:18.644Z,6.03
2022-10-13T14:27:46.500Z,5.72
2022-10-13T14:30:15.028Z,5.55
2022-10-13T14:32:43.418Z,5.32
2022-10-13T14:35:11.149Z,5.16
2022-10-13T14:37:39.242Z,4.98
2022-10-13T14:40:08.162Z,4.91
2022-10-13T14:42:35.966Z,4.76
2022-10-13T14:45:06.847Z,4.76
2022-10-13T14:47:35.293Z,4.70
2022-10-13T14:50:03.356Z,4.47
2022-10-13T14:52:31.301Z,4.57
2022-10-13T14:54:59.465Z,4.48
2022-10-13T14:57:27.429Z,4.37
2022-10-13T14:59:59.377Z,4.34
2022-10-13T15:02:31.861Z,4.29
2022-10-13T15:05:00.362Z,4.06
2022-10-13T15:07:31.030Z,4.14
2022-10-13T15:10:06.740Z,4.03
2022-10-13T15:12:35.339Z,3.90
2022-10-13T15:15:04.126Z,3.88
2022-10-13T15:17:33.493Z,3.82
2022-10-13T15:20:01.436Z,3.83
2022-10-13T15:22:31.157Z,3.77
2022-10-13T15:24:59.160Z,3.77
2022-10-13T15:27:30.231Z,3.76
2022-10-13T15:29:58.378Z,3.61
2022-10-13T15:32:26.274Z,3.63
2022-10-13T15:34:56.177Z,3.75
2022-10-13T15:37:25.837Z,3.61
2022-10-13T15:39:57.344Z,3.41
2022-10-13T15:42:26.524Z,3.43
2022-10-13T15:45:09.267Z,3.33
2022-10-13T15:47:39.084Z,3.22
2022-10-13T15:50:07.785Z,3.23
2022-10-13T15:52:40.471Z,3.08
2022-10-13T15:55:11.306Z,3.08
2022-10-13T15:57:39.760Z,3.03
2022-10-13T16:00:09.030Z,2.91
2022-10-13T16:02:41.047Z,2.86
2022-10-13T16:05:11.962Z,2.74
2022-10-13T16:07:40.975Z,2.76
2022-10-13T16:10:12.658Z,2.63
2022-10-13T16:12:45.500Z,2.46
2022-10-13T16:15:18.392Z,2.42
2022-10-13T16:17:52.358Z,2.43
2022-10-13T16:20:23.414Z,2.30
2022-10-13T16:22:51.309Z,2.34
2022-10-13T16:25:19.192Z,2.31
2022-10-13T16:27:47.594Z,2.32
2022-10-13T16:30:15.535Z,2.35
2022-10-13T16:32:43.608Z,2.24
2022-10-13T16:35:12.157Z,2.10
2022-10-13T16:37:40.267Z,2.19
2022-10-13T16:40:08.702Z,2.07
2022-10-13T16:42:38.010Z,2.13
2022-10-13T16:45:06.626Z,2.19
2022-10-13T16:47:34.622Z,2.23
2022-10-13T16:50:06.966Z,1.95
2022-10-13T16:52:34.860Z,1.90
2022-10-13T16:55:04.560Z,1.83
2022-10-13T16:57:32.991Z,1.74
2022-10-13T17:00:00.943Z,1.58
2022-10-13T17:02:31.697Z,1.55
2022-10-13T17:04:59.519Z,1.61
2022-10-13T17:07:27.467Z,1.47
2022-10-13T17:09:55.888Z,1.58
2022-10-13T17:12:23.759Z,1.34
2022-10-13T17:14:54.478Z,1.30
2022-10-13T17:17:23.070Z,1.18
2022-10-13T17:19:50.918Z,1.15
2022-10-13T17:22:21.583Z,1.15
2022-10-13T17:24:50.132Z,1.21
2022-10-13T17:27:18.440Z,1.17
2022-10-13T17:29:46.802Z,1.59
2022-10-13T17:32:15.128Z,1.27
2022-10-13T17:34:42.930Z,1.48
2022-10-13T17:37:12.328Z,1.38
2022-10-13T17:39:40.571Z,1.61
2022-10-13T17:42:08.352Z,1.39
2022-10-13T17:44:36.695Z,1.37
2022-10-13T17:49:51.107Z,1.40
2022-10-13T17:52:21.169Z,1.33
2022-10-13T18:00:20.919Z,2.13
2022-10-13T18:02:50.391Z,2.17
2022-10-13T18:05:19.051Z,2.15
2022-10-13T18:07:47.032Z,2.02
2022-10-13T18:10:15.603Z,1.87
2022-10-13T18:12:44.539Z,2.08
2022-10-13T18:15:12.357Z,1.85
2022-10-13T18:17:40.587Z,1.78
2022-10-13T18:20:08.781Z,1.32
2022-10-13T18:22:36.983Z,1.08
2022-10-13T18:25:06.964Z,1.28
2022-10-13T18:27:35.063Z,1.11
2022-10-13T18:30:02.930Z,0.31
2022-10-13T18:32:34.807Z,0.27
2022-10-13T18:35:02.668Z,0.25
2022-10-13T18:37:30.722Z,0.02
2022-10-13T18:39:58.833Z,-0.51
2022-10-13T18:42:27.992Z,-0.67
2022-10-13T18:44:58.719Z,-0.36
2022-10-13T18:47:27.023Z,-0.05
2022-10-13T18:49:54.847Z,0.08
2022-10-13T18:52:22.622Z,-0.04
2022-10-13T18:54:51.143Z,-0.12
2022-10-13T18:57:19.098Z,-0.30
2022-10-13T18:59:48.044Z,-0.17
2022-10-13T19:02:16.923Z,-0.09
2022-10-13T19:04:44.761Z,-0.16
2022-10-13T19:07:12.725Z,-0.38
2022-10-13T19:09:40.810Z,-0.05
2022-10-13T19:12:08.886Z,0.12
2022-10-13T19:14:36.640Z,0.10
2022-10-13T19:17:04.795Z,-0.01
2022-10-13T19:19:34.590Z,-0.02
2022-10-13T19:22:02.521Z,-0.03
2022-10-13T19:24:31.115Z,-0.14
2022-10-13T19:26:59.085Z,-0.04
2022-10-13T19:29:26.997Z,0.05
2022-10-13T19:31:55.228Z,0.21
2022-10-13T19:34:23.390Z,-0.14
2022-10-13T19:36:58.604Z,-0.06
2022-10-13T19:39:27.737Z,-0.27
2022-10-13T19:41:57.911Z,-0.49
2022-10-13T19:44:29.370Z,-0.62
2022-10-13T19:47:00.500Z,-0.85
2022-10-13T19:49:29.457Z,-0.80
2022-10-13T19:51:57.301Z,-0.79
2022-10-13T19:54:32.903Z,-1.05
2022-10-13T19:57:02.716Z,-1.46
2022-10-13T19:59:30.769Z,-1.15
2022-10-13T20:01:58.509Z,-1.24
2022-10-13T20:04:26.796Z,-1.18
2022-10-13T20:06:54.750Z,-0.98
2022-10-13T20:09:23.139Z,-1.02
2022-10-13T20:11:52.374Z,-1.25
2022-10-13T20:14:20.445Z,-1.47
2022-10-13T20:16:51.794Z,-1.57
2022-10-13T20:19:20.592Z,-1.65
2022-10-13T20:21:51.898Z,-1.62
2022-10-13T20:24:24.211Z,-1.53
2022-10-13T20:26:53.771Z,-1.56
2022-10-13T20:29:23.076Z,-1.52
2022-10-13T20:31:51.142Z,-1.45
2022-10-13T20:34:19.164Z,-1.32
2022-10-13T20:36:51.512Z,-1.21
2022-10-13T20:39:19.781Z,-1.07
2022-10-13T20:41:48.235Z,-1.10
2022-10-13T20:44:16.149Z,-0.88
2022-10-13T20:46:44.017Z,-0.81
2022-10-13T20:49:13.268Z,-0.73
2022-10-13T20:51:43.115Z,-0.65
2022-10-13T20:54:12.967Z,-0.55
2022-10-13T20:56:41.807Z,-0.46
2022-10-13T20:59:12.327Z,-0.42
2022-10-13T21:01:40.789Z,-0.34
2022-10-13T21:04:09.234Z,-0.29
2022-10-13T21:06:41.745Z,-0.22
2022-10-13T21:09:10.858Z,-0.15
2022-10-13T21:11:40.049Z,-0.09
2022-10-13T21:14:11.091Z,0.01
2022-10-13T21:16:39.668Z,0.02
2022-10-13T21:19:09.924Z,-0.02
2022-10-13T21:21:38.401Z,0.16
2022-10-13T21:24:08.476Z,0.20
2022-10-13T21:26:40.726Z,0.28
2022-10-13T21:29:15.066Z,0.29
2022-10-13T21:31:43.064Z,0.34
2022-10-13T21:34:12.762Z,0.36
2022-10-13T21:36:44.610Z,0.38
2022-10-13T21:39:14.999Z,0.46
2022-10-13T21:41:42.739Z,0.48
2022-10-13T21:44:13.297Z,0.48
2022-10-13T21:46:41.804Z,0.52
2022-10-13T21:49:10.389Z,0.53
2022-10-13T21:51:40.153Z,0.58
2022-10-13T21:54:11.454Z,0.63
2022-10-13T21:56:40.532Z,0.61
2022-10-13T21:59:10.488Z,0.65
2022-10-13T22:01:41.957Z,0.67
2022-10-13T22:04:15.022Z,0.70
2022-10-13T22:06:43.566Z,0.68
2022-10-13T22:09:12.069Z,0.71
2022-10-13T22:11:41.295Z,0.73
2022-10-13T22:14:11.693Z,0.79
2022-10-13T22:16:42.928Z,0.84
2022-10-13T22:19:11.363Z,0.87
2022-10-13T22:21:42.374Z,0.77
2022-10-13T22:24:16.381Z,0.78
2022-10-13T22:26:45.516Z,0.87
2022-10-13T22:29:15.879Z,0.85
2022-10-13T22:31:44.223Z,0.92
2022-10-13T22:34:13.319Z,0.97
2022-10-13T22:36:44.828Z,1.02
2022-10-13T22:39:15.187Z,1.03
2022-10-13T22:41:43.141Z,1.13
2022-10-13T22:44:13.826Z,1.13
2022-10-13T22:46:42.190Z,1.14
2022-10-13T22:49:14.066Z,1.16
2022-10-13T22:51:42.248Z,1.19
2022-10-13T22:54:10.854Z,1.24
2022-10-13T22:56:40.518Z,1.21
2022-10-13T22:59:09.164Z,1.32
2022-10-13T23:01:37.355Z,1.34
2022-10-13T23:04:05.861Z,1.33
2022-10-13T23:06:37.120Z,1.37
2022-10-13T23:09:11.546Z,1.33
2022-10-13T23:11:40.455Z,1.35
2022-10-13T23:14:11.656Z,1.32
2022-10-13T23:16:42.655Z,1.40
2022-10-13T23:19:13.720Z,1.35
2022-10-13T23:21:41.512Z,1.40
2022-10-13T23:24:11.337Z,1.47
2022-10-13T23:26:41.995Z,1.48
2022-10-13T23:29:10.597Z,1.51
2022-10-13T23:31:38.524Z,1.51
2022-10-13T23:34:06.734Z,1.54
2022-10-13T23:36:34.804Z,1.56
2022-10-13T23:39:07.139Z,1.55
2022-10-13T23:41:35.480Z,1.59
2022-10-13T23:44:03.381Z,1.57
2022-10-13T23:46:31.316Z,1.62
2022-10-13T23:49:02.642Z,1.62
2022-10-13T23:51:31.214Z,1.62
2022-10-13T23:54:00.040Z,1.61
2022-10-13T23:56:28.081Z,1.63
2022-10-13T23:58:56.172Z,1.62
